world map with BTS marked

BTS - Airport

This information may not be accurate or current and is not valid for navigation or flight planning. No warranty of fitness for any purpose is made or implied.

flag of Slovakia

Donate via PayPal

Additional information is available on the NEW Great Circle Mapper

Location
City:  Bratislava, Slovakia
Name:Milan Rastislav Stefánik
ICAO / IATA:LZIB / BTS

Details
Type:Airport (Aerodrome, Airfield)
Use:Public/Civil
Latitude:48°10'13"N (48.170167)
Longitude:17°12'46"E (17.212667)
Datum:WGS 1984
Elevation:436 ft (133 m)
Runways:2
Longest:10466 × 148 ft (3190 × 45 m)

Time
Timezone:UTC+1 (DST+4)
Local Time:

Weather
METAR:LZIB  041400Z 32011KT 9999 BKN028 03/M03 Q1030 R88/CLRD// NOSIG
TAF:LZIB  (expired)

Related Locations
Nearby:
Farthest:CHT: 11716 mi / 18855 km
Waitangi [Tuuta], CIT, NZ

Find:

   beyond  
but within

Other Information
Maps:
Links:
Sources:

  


 


Great Circle Mapper   Great Circle Mapper
Great Circle Mapper FAQ   Great Circle Mapper FAQ
  Karl's Home Page
KLS²   KLS² Home
   GC on Facebook
Airlines of the World   Airlines of the World
Donate via PayPal


Copyright © 2004-2019, Karl L. Swartz. All rights reserved.
All trademarks mentioned herein belong to their respective owners.

Please see credits for attribution and copyright information.

Karl Swartz <karl@kls2.com>
  Powered by FreeBSD
Valid HTML 4.01!
Labeled with ICRA
hCard Microformat
Geo Microformat